Time;durP1;ratioP1;P1;durP2;ratioP2;P2;SDS_P1;SDS_P2;PMS_P1;PMS_P2;Temp;Humidity;BMP_temperature;BMP_pressure;BME280_temperature;BME280_humidity;BME280_pressure;Samples;Min_cycle;Max_cycle;Signal;HPM_P1;HPM_P2
2021/11/30 00:01:07;;;;;;;6.33;1.33;;;;;;;-142.75;100.00;77651.13;4986807;28;20022;-65
2021/11/30 00:03:38;;;;;;;7.65;1.77;;;;;;;-142.75;100.00;77657.03;4986476;28;20067;-65
2021/11/30 00:06:04;;;;;;;5.87;1.47;;;;;;;-142.75;100.00;77651.13;4985960;28;20087;-65
2021/11/30 00:08:31;;;;;;;7.13;1.33;;;;;;;-142.75;100.00;77655.06;4987186;28;20058;-64
2021/11/30 00:11:00;;;;;;;3.07;1.30;;;;;;;-142.75;100.00;77647.19;4987078;28;20393;-65
2021/11/30 00:13:27;;;;;;;5.93;1.27;;;;;;;-142.75;100.00;77662.94;4985908;28;20388;-65
2021/11/30 00:15:55;;;;;;;4.50;1.27;;;;;;;-142.75;100.00;77653.09;4986908;28;20430;-64
2021/11/30 00:18:20;;;;;;;4.67;1.20;;;;;;;-142.75;100.00;77657.03;4986718;28;20507;-64
2021/11/30 00:20:46;;;;;;;6.43;1.50;;;;;;;-142.75;100.00;77649.16;4986328;28;20031;-65
2021/11/30 00:23:13;;;;;;;5.63;1.58;;;;;;;-142.75;100.00;77653.09;4986788;28;20038;-64
2021/11/30 00:25:39;;;;;;;5.90;1.70;;;;;;;-142.75;100.00;77645.22;4985551;28;20026;-64
2021/11/30 00:28:07;;;;;;;5.10;1.43;;;;;;;-142.75;100.00;77655.06;4986831;28;20500;-64
2021/11/30 00:30:33;;;;;;;4.17;1.20;;;;;;;-142.75;100.00;77653.09;4985989;28;20647;-64
2021/11/30 00:32:59;;;;;;;11.52;1.67;;;;;;;-142.75;100.00;77633.41;4986489;28;20030;-64
2021/11/30 00:35:25;;;;;;;6.43;1.20;;;;;;;-142.75;100.00;77639.31;4985690;28;20022;-64
2021/11/30 00:37:51;;;;;;;;;;;;;;;-142.75;100.00;77633.41;4986234;28;20038;-64
2021/11/30 00:40:17;;;;;;;8.63;1.50;;;;;;;-142.75;100.00;77643.25;4985031;28;19914;-64
2021/11/30 00:42:43;;;;;;;6.90;1.43;;;;;;;-142.75;100.00;77641.28;4986722;28;20053;-64
2021/11/30 00:45:10;;;;;;;4.35;1.30;;;;;;;-142.75;100.00;77627.50;4985473;28;20495;-65
2021/11/30 00:47:38;;;;;;;6.33;1.30;;;;;;;-142.75;100.00;77641.28;4986215;28;20495;-65
2021/11/30 00:50:06;;;;;;;4.87;1.40;;;;;;;-142.75;100.00;77649.16;4985612;28;20041;-65
2021/11/30 00:52:33;;;;;;;6.60;1.30;;;;;;;-142.75;100.00;77668.84;4986485;28;20030;-65
2021/11/30 00:54:58;;;;;;;7.60;1.58;;;;;;;-142.75;100.00;77649.16;4985177;28;20030;-65
2021/11/30 00:57:24;;;;;;;7.35;1.60;;;;;;;-142.75;100.00;77668.84;4986155;28;20015;-65
2021/11/30 00:59:51;;;;;;;6.78;1.67;;;;;;;-142.75;100.00;77684.59;4985852;28;20369;-65
2021/11/30 01:02:17;;;;;;;5.83;2.27;;;;;;;-142.75;100.00;77704.28;4986427;28;20058;-65
2021/11/30 01:04:42;;;;;;;6.63;2.00;;;;;;;-142.75;100.00;77690.50;4986249;28;20054;-65
2021/11/30 01:07:10;;;;;;;7.93;2.60;;;;;;;-142.75;100.00;77706.25;4986186;28;20101;-65
2021/11/30 01:09:35;;;;;;;9.47;2.40;;;;;;;-142.75;100.00;77704.28;4986425;28;20032;-66
2021/11/30 01:12:01;;;;;;;10.15;2.90;;;;;;;-142.75;100.00;77712.16;4985522;28;20105;-65
2021/11/30 01:14:26;;;;;;;9.15;2.92;;;;;;;-142.75;100.00;77700.34;4986128;28;20101;-65
2021/11/30 01:16:52;;;;;;;10.43;3.60;;;;;;;-142.75;100.00;77712.16;4985875;28;20098;-65
2021/11/30 01:19:17;;;;;;;7.63;3.38;;;;;;;-142.75;100.00;77704.28;4986392;28;20038;-65
2021/11/30 01:21:43;;;;;;;11.02;3.88;;;;;;;-142.75;100.00;77716.09;4985182;28;20030;-65
2021/11/30 01:24:09;;;;;;;14.23;4.43;;;;;;;-142.75;100.00;77716.09;4986039;28;20484;-65
2021/11/30 01:26:34;;;;;;;;;;;;;;;-142.75;100.00;77704.28;4986576;28;20286;-65
2021/11/30 01:29:00;;;;;;;6.50;3.63;;;;;;;-142.75;100.00;77712.16;4986147;28;19913;-65
2021/11/30 01:31:25;;;;;;;9.40;4.47;;;;;;;-142.75;100.00;77702.31;4980850;28;20034;-66
2021/11/30 01:33:51;;;;;;;11.00;4.40;;;;;;;-142.75;100.00;77694.44;4983006;28;20033;-65
2021/11/30 01:36:16;;;;;;;9.50;4.38;;;;;;;-142.75;100.00;77694.44;4986086;28;20030;-65
2021/11/30 01:38:42;;;;;;;9.52;4.20;;;;;;;-142.75;100.00;77686.56;4986612;28;20068;-65
2021/11/30 01:41:09;;;;;;;7.07;3.43;;;;;;;-142.75;100.00;77684.59;4983687;28;20492;-65
2021/11/30 01:43:40;;;;;;;7.73;4.20;;;;;;;-142.75;100.00;77688.53;4985889;28;20274;-66
2021/11/30 01:46:25;;;;;;;7.20;4.37;;;;;;;-142.75;100.00;77674.75;4985879;28;20447;-65
2021/11/30 01:51:34;;;;;;;7.93;4.00;;;;;;;-142.75;100.00;77653.09;4988509;28;20084;-65
2021/11/30 01:53:59;;;;;;;7.47;3.65;;;;;;;-142.75;100.00;77649.16;4989070;28;20026;-65
2021/11/30 01:56:25;;;;;;;7.20;4.20;;;;;;;-142.75;100.00;77643.25;4988623;28;20030;-66
2021/11/30 01:58:51;;;;;;;;;;;;;;;-142.75;100.00;77633.41;4989778;28;20117;-66
2021/11/30 02:01:17;;;;;;;6.80;3.80;;;;;;;-142.75;100.00;77637.34;4988381;28;20009;-66
2021/11/30 02:03:43;;;;;;;6.97;3.70;;;;;;;-142.75;100.00;77627.50;4988994;28;20025;-66
2021/11/30 02:06:08;;;;;;;9.57;4.45;;;;;;;-142.75;100.00;77627.50;4988491;28;20022;-66
2021/11/30 02:08:34;;;;;;;7.65;3.92;;;;;;;-142.75;100.00;77621.59;4989552;28;20096;-66
2021/11/30 02:10:59;;;;;;;7.57;4.22;;;;;;;-142.75;100.00;77631.44;4986904;28;20022;-66
2021/11/30 02:13:25;;;;;;;8.27;4.25;;;;;;;-142.75;100.00;77627.50;4988590;28;20037;-66
2021/11/30 02:15:54;;;;;;;8.57;4.72;;;;;;;-142.75;100.00;77625.53;4988746;28;20109;-66
2021/11/30 02:18:24;;;;;;;7.57;4.50;;;;;;;-142.75;100.00;77613.72;4988749;28;20083;-66
2021/11/30 02:20:56;;;;;;;5.67;4.37;;;;;;;-142.75;100.00;77615.69;4988049;28;20103;-66
2021/11/30 02:23:44;;;;;;;6.03;3.80;;;;;;;-142.75;100.00;77603.88;4988647;28;20031;-66
2021/11/30 02:26:12;;;;;;;6.83;4.70;;;;;;;-142.75;100.00;77601.91;4988517;28;20030;-66
2021/11/30 02:28:43;;;;;;;6.60;4.20;;;;;;;-142.75;100.00;77592.06;4988620;28;20426;-66
2021/11/30 02:31:12;;;;;;;6.77;4.47;;;;;;;-142.75;100.00;77578.28;4987902;28;20026;-67
2021/11/30 02:33:38;;;;;;;6.13;4.17;;;;;;;-142.75;100.00;77578.28;4988262;28;20479;-66
2021/11/30 02:36:35;;;;;;;8.15;4.95;;;;;;;-142.75;100.00;77564.50;4988190;28;20030;-66
2021/11/30 02:39:03;;;;;;;6.73;4.10;;;;;;;-142.75;100.00;77542.84;4987682;28;20148;-66
2021/11/30 02:41:28;;;;;;;7.23;4.90;;;;;;;-142.75;100.00;77542.84;4987323;28;20025;-66
2021/11/30 02:43:53;;;;;;;10.32;4.97;;;;;;;-142.75;100.00;77542.84;4988545;28;20026;-65
2021/11/30 02:46:34;;;;;;;8.25;5.07;;;;;;;-142.75;100.00;77523.16;4988506;28;20030;-66
2021/11/30 02:49:01;;;;;;;6.97;4.80;;;;;;;-142.75;100.00;77513.31;4988309;28;20041;-66
2021/11/30 02:51:27;;;;;;;6.63;4.70;;;;;;;-142.75;100.00;77503.47;4987350;28;20503;-66
2021/11/30 02:53:55;;;;;;;7.43;4.55;;;;;;;-142.75;100.00;77489.69;4988132;28;20034;-65
2021/11/30 02:56:20;;;;;;;6.70;4.40;;;;;;;-142.75;100.00;77473.94;4987964;28;20360;-65
2021/11/30 02:58:45;;;;;;;7.20;4.95;;;;;;;-142.75;100.00;77477.88;4987574;28;20042;-65
2021/11/30 03:01:12;;;;;;;6.35;4.43;;;;;;;-142.75;100.00;77464.09;4987044;28;20104;-65
2021/11/30 03:03:38;;;;;;;8.03;3.93;;;;;;;-142.75;100.00;77448.34;4988007;28;20064;-65
2021/11/30 03:06:03;;;;;;;5.88;3.22;;;;;;;-142.75;100.00;77403.03;4987705;28;20435;-65
2021/11/30 03:08:28;;;;;;;5.47;2.10;;;;;;;-142.75;100.00;77347.91;4988297;28;20015;-65
2021/11/30 03:10:55;;;;;;;8.55;2.92;;;;;;;-142.75;100.00;77316.41;4987215;28;20391;-65
2021/11/30 03:13:20;;;;;;;6.60;2.73;;;;;;;-142.75;100.00;77298.69;4987872;28;20038;-65
2021/11/30 03:15:46;;;;;;;9.23;3.00;;;;;;;-142.75;100.00;77263.25;4987839;28;20032;-65
2021/11/30 03:18:12;;;;;;;9.50;2.60;;;;;;;-142.75;100.00;77253.41;4987684;28;20103;-65
2021/11/30 03:20:38;;;;;;;9.43;3.40;;;;;;;-142.75;100.00;77243.56;4986963;28;20368;-65
2021/11/30 03:23:03;;;;;;;6.07;2.85;;;;;;;-142.75;100.00;77231.75;4987718;28;20391;-67
2021/11/30 03:25:28;;;;;;;12.43;3.23;;;;;;;-142.75;100.00;77219.94;4987840;28;20018;-65
2021/11/30 03:27:53;;;;;;;7.95;3.70;;;;;;;-142.75;100.00;77219.94;4988079;28;20567;-65
2021/11/30 03:30:23;;;;;;;9.68;3.55;;;;;;;-142.75;100.00;77212.06;4984304;28;20029;-67
2021/11/30 03:35:33;;;;;;;7.90;2.63;;;;;;;-142.75;100.00;77192.38;4987627;28;20044;-67
2021/11/30 03:37:58;;;;;;;5.90;2.90;;;;;;;-142.75;100.00;77192.38;4986910;28;20407;-67
2021/11/30 03:40:24;;;;;;;7.93;3.42;;;;;;;-142.75;100.00;77200.25;4986728;28;20464;-68
2021/11/30 03:42:49;;;;;;;9.63;4.55;;;;;;;-142.75;100.00;77180.56;4987692;28;20026;-67
2021/11/30 03:45:15;;;;;;;8.25;3.97;;;;;;;-142.75;100.00;77188.44;4987362;28;20034;-67
2021/11/30 03:47:42;;;;;;;10.15;4.20;;;;;;;-142.75;100.00;77184.50;4987135;28;20034;-67
2021/11/30 03:50:07;;;;;;;10.23;4.67;;;;;;;-142.75;100.00;77178.59;4986624;28;20057;-67
2021/11/30 03:52:33;;;;;;;12.60;4.90;;;;;;;-142.75;100.00;77178.59;4987540;28;20053;-68
2021/11/30 03:54:58;;;;;;;10.40;5.22;;;;;;;-142.75;100.00;77168.75;4987560;28;20054;-67
2021/11/30 03:57:23;;;;;;;8.48;3.97;;;;;;;-142.75;100.00;77164.81;4988003;28;20022;-67
2021/11/30 03:59:48;;;;;;;8.52;3.45;;;;;;;-142.75;100.00;77156.94;4986999;28;20037;-68
2021/11/30 04:02:16;;;;;;;9.27;4.57;;;;;;;-142.75;100.00;77149.06;4987700;28;20034;-67
2021/11/30 04:04:43;;;;;;;6.20;4.10;;;;;;;-142.75;100.00;77145.13;4988135;28;20284;-67
2021/11/30 04:07:09;;;;;;;8.80;4.30;;;;;;;-142.75;100.00;77133.31;5045765;23;20131;-68
2021/11/30 04:09:35;;;;;;;8.25;3.78;;;;;;;-142.75;100.00;77129.38;5058857;28;20096;-69
2021/11/30 04:12:01;;;;;;;5.32;3.38;;;;;;;-142.75;100.00;77127.41;5060932;28;20441;-68
2021/11/30 04:14:26;;;;;;;8.13;3.75;;;;;;;-142.75;100.00;77137.25;5047058;28;20059;-68
2021/11/30 04:16:51;;;;;;;8.55;3.47;;;;;;;-142.75;100.00;77129.38;5063220;28;20545;-67
2021/11/30 04:19:17;;;;;;;8.30;3.05;;;;;;;-142.75;100.00;77125.44;5069825;28;20074;-68
2021/11/30 04:21:42;;;;;;;8.15;2.95;;;;;;;-142.75;100.00;77121.50;5068422;28;20032;-68
2021/11/30 04:24:07;;;;;;;6.68;3.35;;;;;;;-142.75;100.00;77109.69;5069049;28;20063;-68
2021/11/30 04:26:33;;;;;;;6.68;3.10;;;;;;;-142.75;100.00;77113.63;5050766;28;20069;-68
2021/11/30 04:28:58;;;;;;;9.18;3.22;;;;;;;-142.75;100.00;77121.50;5068987;28;20756;-68
2021/11/30 04:31:24;;;;;;;10.32;3.08;;;;;;;-142.75;100.00;77103.78;5068196;28;20021;-67
2021/11/30 04:33:50;;;;;;;9.10;3.15;;;;;;;-142.75;100.00;77099.84;5069103;28;20024;-67
2021/11/30 04:36:15;;;;;;;8.93;3.65;;;;;;;-142.75;100.00;77086.06;5050917;28;20029;-68
2021/11/30 04:38:41;;;;;;;10.82;3.63;;;;;;;-142.75;100.00;77080.16;5069347;28;20024;-69
2021/11/30 04:41:07;;;;;;;8.68;3.70;;;;;;;-142.75;100.00;77072.28;5067959;28;20509;-69
2021/11/30 04:43:35;;;;;;;5.85;3.17;;;;;;;-142.75;100.00;77082.13;5068558;28;20028;-69
2021/11/30 04:46:24;;;;;;;7.53;3.87;;;;;;;-142.75;100.00;77082.13;5068664;28;20017;-68
2021/11/30 04:48:56;;;;;;;13.80;4.57;;;;;;;-142.75;100.00;77070.31;5050852;28;20571;-68
2021/11/30 04:51:21;;;;;;;13.63;4.73;;;;;;;-142.75;100.00;77078.19;5068177;28;20382;-68
2021/11/30 04:53:47;;;;;;;11.18;5.28;;;;;;;-142.75;100.00;77078.19;5068750;28;20029;-67
2021/11/30 04:56:14;;;;;;;18.80;5.05;;;;;;;-142.75;100.00;77068.34;5068957;28;20029;-68
2021/11/30 04:58:40;;;;;;;11.00;4.90;;;;;;;-142.75;100.00;77074.25;5050505;28;20021;-68
2021/11/30 05:01:05;;;;;;;12.90;4.72;;;;;;;-142.75;100.00;77060.47;5067706;28;20024;-72
2021/11/30 05:03:31;;;;;;;10.38;4.13;;;;;;;-142.75;100.00;77054.56;5068510;28;20031;-69
2021/11/30 05:05:56;;;;;;;13.80;4.75;;;;;;;-142.75;100.00;77056.53;5068132;28;20035;-68
2021/11/30 05:08:21;;;;;;;14.65;4.65;;;;;;;-142.75;100.00;77052.59;5069395;28;20025;-69
2021/11/30 05:10:47;;;;;;;12.95;4.72;;;;;;;-142.75;100.00;77038.81;5067439;28;20494;-67
2021/11/30 05:13:13;;;;;;;11.37;4.07;;;;;;;-142.75;100.00;77044.72;5068382;28;20066;-69
2021/11/30 05:15:39;;;;;;;14.67;4.67;;;;;;;-142.75;100.00;77044.72;5050508;28;20398;-69
2021/11/30 05:18:04;;;;;;;12.73;4.47;;;;;;;-142.75;100.00;77038.81;5068236;28;20017;-69
2021/11/30 05:20:29;;;;;;;17.63;5.40;;;;;;;-142.75;100.00;77034.88;5067694;28;20016;-68
2021/11/30 05:22:55;;;;;;;11.82;4.47;;;;;;;-142.75;100.00;77030.94;5070080;28;20486;-68
2021/11/30 05:25:25;;;;;;;13.30;5.45;;;;;;;-142.75;100.00;77036.84;5054527;28;20024;-69
2021/11/30 05:27:51;;;;;;;11.70;5.17;;;;;;;-142.75;100.00;77032.91;5072131;28;20024;-68
2021/11/30 05:30:19;;;;;;;17.00;5.13;;;;;;;-142.75;100.00;77030.94;5071682;28;20450;-68
2021/11/30 05:32:46;;;;;;;15.00;4.77;;;;;;;-142.75;100.00;77030.94;5072396;28;20024;-69
2021/11/30 05:35:11;;;;;;;19.13;5.13;;;;;;;-142.75;100.00;77027.00;5054172;28;20020;-68
2021/11/30 05:37:36;;;;;;;12.50;4.72;;;;;;;-142.75;100.00;77017.16;5071696;28;20032;-68
2021/11/30 05:40:03;;;;;;;10.48;4.13;;;;;;;-142.75;100.00;77027.00;5071509;28;20032;-68
2021/11/30 05:42:29;;;;;;;11.07;4.40;;;;;;;-142.75;100.00;77019.13;5071794;28;20029;-69
2021/11/30 05:44:54;;;;;;;16.38;6.05;;;;;;;-142.75;100.00;77028.97;5071757;28;20111;-68
2021/11/30 05:47:19;;;;;;;17.33;4.67;;;;;;;-142.75;100.00;77019.13;5053984;28;20032;-68
2021/11/30 05:49:45;;;;;;;10.83;4.27;;;;;;;-142.75;100.00;77021.09;5053183;28;20325;-68
2021/11/30 05:52:10;;;;;;;15.13;4.78;;;;;;;-142.75;100.00;77011.25;5071610;28;20036;-68
2021/11/30 05:54:36;;;;;;;10.23;4.43;;;;;;;-142.75;100.00;77011.25;5071503;28;20016;-68
2021/11/30 05:57:02;;;;;;;;;;;;;;;-142.75;100.00;77003.38;5071594;28;20108;-69
2021/11/30 05:59:35;;;;;;;10.83;4.53;;;;;;;-142.75;100.00;77007.31;5071460;28;19974;-68
2021/11/30 06:02:01;;;;;;;16.33;4.60;;;;;;;-142.75;100.00;77005.34;5070478;28;20116;-68
2021/11/30 06:04:26;;;;;;;13.25;5.40;;;;;;;-142.75;100.00;76999.44;5071443;28;20070;-68
2021/11/30 06:06:52;;;;;;;18.50;5.60;;;;;;;-142.75;100.00;77013.22;5069696;28;20017;-67
2021/11/30 06:09:17;;;;;;;14.80;5.27;;;;;;;-142.75;100.00;77005.34;5072309;28;20125;-68
2021/11/30 06:11:44;;;;;;;14.43;5.03;;;;;;;-142.75;100.00;76999.44;5070604;28;20270;-68
2021/11/30 06:14:10;;;;;;;10.52;5.95;;;;;;;-142.75;100.00;76995.50;5053346;28;20147;-69
2021/11/30 06:16:35;;;;;;;14.27;5.77;;;;;;;-142.75;100.00;77001.41;5070848;28;20468;-68
2021/11/30 06:19:00;;;;;;;18.50;5.80;;;;;;;-142.75;100.00;77003.38;5071179;28;20271;-69
2021/11/30 06:21:26;;;;;;;16.63;6.22;;;;;;;-142.75;100.00;76991.56;5052355;28;20034;-68
2021/11/30 06:23:51;;;;;;;18.10;5.60;;;;;;;-142.75;100.00;76985.66;5071130;28;20058;-67
2021/11/30 06:26:17;;;;;;;19.83;6.18;;;;;;;-142.75;100.00;76979.75;5053369;28;20028;-68
2021/11/30 06:28:43;;;;;;;18.70;5.82;;;;;;;-142.75;100.00;76975.81;5053241;28;20158;-68
2021/11/30 06:31:08;;;;;;;18.10;5.82;;;;;;;-142.75;100.00;76965.97;5070758;28;20428;-68
2021/11/30 06:33:34;;;;;;;21.75;6.05;;;;;;;-142.75;100.00;76965.97;5070816;28;20081;-69
2021/11/30 06:36:00;;;;;;;13.38;5.30;;;;;;;-142.75;100.00;76962.03;5070896;28;20024;-68
2021/11/30 06:38:26;;;;;;;20.75;6.13;;;;;;;-142.75;100.00;76964.00;5071598;28;20032;-68
2021/11/30 06:40:52;;;;;;;20.40;6.50;;;;;;;-142.75;100.00;76956.13;5052792;28;20483;-67
2021/11/30 06:43:18;;;;;;;;;;;;;;;-142.75;100.00;76956.13;5072094;28;20016;-70
2021/11/30 06:45:43;;;;;;;17.90;5.18;;;;;;;-142.75;100.00;76954.16;5071246;28;20293;-69
2021/11/30 06:48:09;;;;;;;19.38;4.97;;;;;;;-142.75;100.00;76960.06;5071282;28;20117;-69
2021/11/30 06:50:35;;;;;;;13.18;4.45;;;;;;;-142.75;100.00;76954.16;5052478;28;20025;-70
2021/11/30 06:53:01;;;;;;;21.43;5.73;;;;;;;-142.75;100.00;76952.19;5071171;28;20032;-69
2021/11/30 06:55:26;;;;;;;21.73;5.82;;;;;;;-142.75;100.00;76948.25;5070982;28;20612;-69
2021/11/30 06:57:51;;;;;;;18.10;4.68;;;;;;;-142.75;100.00;76944.31;5070975;28;20016;-68
2021/11/30 07:00:21;;;;;;;20.50;5.35;;;;;;;-142.75;100.00;76944.31;5052646;28;20063;-69
2021/11/30 07:02:47;;;;;;;30.40;6.43;;;;;;;-142.75;100.00;76960.06;5070937;28;20028;-69
2021/11/30 07:13:16;;;;;;;17.65;4.47;;;;;;;-142.75;100.00;76940.38;5070706;28;20040;-68
2021/11/30 07:15:43;;;;;;;18.48;4.85;;;;;;;-142.75;100.00;76934.47;5070542;28;20029;-70
2021/11/30 07:18:11;;;;;;;20.33;5.10;;;;;;;-142.75;100.00;76936.44;5052693;28;20024;-70
2021/11/30 07:20:37;;;;;;;26.05;5.03;;;;;;;-142.75;100.00;76932.50;5069922;28;20032;-70
2021/11/30 07:23:02;;;;;;;17.42;4.13;;;;;;;-142.75;100.00;76930.53;5070491;28;20398;-69
2021/11/30 07:25:28;;;;;;;18.52;4.50;;;;;;;-142.75;100.00;76934.47;5052553;28;20036;-70
2021/11/30 07:27:54;;;;;;;12.93;4.22;;;;;;;-142.75;100.00;76928.56;5070459;28;20056;-69
2021/11/30 07:30:20;;;;;;;20.20;3.72;;;;;;;-142.75;100.00;76914.78;5069878;28;20464;-70
2021/11/30 07:32:45;;;;;;;;;;;;;;;-142.75;100.00;76916.75;5052872;28;20107;-69
2021/11/30 07:35:11;;;;;;;9.82;3.72;;;;;;;-142.75;100.00;76924.63;5070225;28;20023;-70
2021/11/30 07:37:36;;;;;;;18.08;3.88;;;;;;;-142.75;100.00;76928.56;5070051;28;20033;-69
2021/11/30 07:40:03;;;;;;;18.88;4.68;;;;;;;-142.75;100.00;76932.50;5051387;28;20050;-69
2021/11/30 07:42:32;;;;;;;20.55;4.50;;;;;;;-142.75;100.00;76944.31;5070010;28;20025;-69
2021/11/30 07:44:58;;;;;;;18.60;4.65;;;;;;;-142.75;100.00;76938.41;5069560;28;20494;-69
2021/11/30 07:47:23;;;;;;;20.33;4.18;;;;;;;-142.75;100.00;76940.38;5069976;28;20042;-68
2021/11/30 07:49:49;;;;;;;12.80;4.15;;;;;;;-142.75;100.00;76928.56;5051634;28;20036;-69
2021/11/30 07:52:14;;;;;;;13.68;3.08;;;;;;;-142.75;100.00;76936.44;5069857;28;20091;-69
2021/11/30 07:54:39;;;;;;;12.27;3.35;;;;;;;-142.75;100.00;76940.38;5069729;28;20077;-70
2021/11/30 07:57:05;;;;;;;11.30;3.50;;;;;;;-142.75;100.00;76940.38;5069565;28;20025;-70
2021/11/30 07:59:31;;;;;;;17.60;3.95;;;;;;;-142.75;100.00;76940.38;5051846;28;20185;-70
2021/11/30 08:01:57;;;;;;;13.80;3.50;;;;;;;-142.75;100.00;76936.44;5068976;28;20021;-69
2021/11/30 08:04:22;;;;;;;11.80;3.80;;;;;;;-142.75;100.00;76932.50;5069775;28;20036;-68
2021/11/30 08:06:47;;;;;;;14.57;3.90;;;;;;;-142.75;100.00;76940.38;5051791;28;20016;-70
2021/11/30 08:09:13;;;;;;;15.83;3.67;;;;;;;-142.75;100.00;76928.56;5069655;28;20016;-69
2021/11/30 08:11:38;;;;;;;16.43;4.00;;;;;;;-142.75;100.00;76932.50;5068887;28;20286;-70
2021/11/30 08:14:03;;;;;;;13.93;3.92;;;;;;;-142.75;100.00;76916.75;5069452;28;20345;-69
2021/11/30 08:16:29;;;;;;;18.33;4.05;;;;;;;-142.75;100.00;76926.59;5069481;28;20024;-70
2021/11/30 08:18:54;;;;;;;15.85;4.10;;;;;;;-142.75;100.00;76924.63;5069549;28;20021;-68
2021/11/30 08:21:19;;;;;;;17.40;4.25;;;;;;;-142.75;100.00;76926.59;5069113;28;20035;-68
2021/11/30 08:23:45;;;;;;;14.15;4.18;;;;;;;-142.75;100.00;76912.81;5069463;28;20115;-69
2021/11/30 08:26:12;;;;;;;16.42;4.57;;;;;;;-142.75;100.00;76920.69;5068252;28;20025;-69
2021/11/30 08:28:39;;;;;;;24.55;5.30;;;;;;;-142.75;100.00;76916.75;5063186;28;20024;-68
2021/11/30 08:31:04;;;;;;;16.58;4.53;;;;;;;-142.75;100.00;76922.66;5066982;28;20115;-68
2021/11/30 08:33:30;;;;;;;14.88;4.28;;;;;;;-142.75;100.00;76926.59;5067213;28;20115;-68
2021/11/30 08:35:56;;;;;;;16.05;4.07;;;;;;;-142.75;100.00;76920.69;5050192;28;20471;-68
2021/11/30 08:38:22;;;;;;;12.88;3.67;;;;;;;-142.75;100.00;76904.94;5068620;28;20047;-68
2021/11/30 08:40:47;;;;;;;16.48;4.45;;;;;;;-142.75;100.00;76902.97;5067839;28;20063;-69
2021/11/30 08:43:13;;;;;;;16.65;4.78;;;;;;;-142.75;100.00;76897.06;5068310;28;20055;-69
2021/11/30 08:45:38;;;;;;;20.83;3.70;;;;;;;-142.75;100.00;76904.94;5068236;28;20042;-68
2021/11/30 08:48:04;;;;;;;20.10;3.67;;;;;;;-142.75;100.00;76899.03;5067980;28;20033;-68
2021/11/30 08:50:29;;;;;;;14.45;5.07;;;;;;;-142.75;100.00;76906.91;5067439;28;20063;-68
2021/11/30 08:52:54;;;;;;;12.27;3.08;;;;;;;-142.75;100.00;76897.06;5067529;28;20024;-69
2021/11/30 08:55:20;;;;;;;17.48;3.63;;;;;;;-142.75;100.00;76901.00;5050258;28;20028;-68
2021/11/30 08:57:46;;;;;;;14.88;2.88;;;;;;;-142.75;100.00;76897.06;5069771;28;20039;-69
2021/11/30 09:00:14;;;;;;;19.17;3.67;;;;;;;-142.75;100.00;76891.16;5071805;28;20111;-68
2021/11/30 09:02:40;;;;;;;17.08;3.35;;;;;;;-142.75;100.00;76885.25;5070800;28;20031;-68
2021/11/30 09:05:06;;;;;;;13.15;3.08;;;;;;;-142.75;100.00;76879.34;5054615;28;20493;-68
2021/11/30 09:07:31;;;;;;;10.95;2.97;;;;;;;-142.75;100.00;76885.25;5053193;28;20024;-68
2021/11/30 09:09:57;;;;;;;18.27;3.83;;;;;;;-142.75;100.00;76889.19;5051822;28;20029;-68
2021/11/30 09:12:22;;;;;;;11.50;3.47;;;;;;;-142.75;100.00;76885.25;5070967;28;20031;-68
2021/11/30 09:14:48;;;;;;;19.77;3.88;;;;;;;-142.75;100.00;76885.25;5071335;28;20470;-68
2021/11/30 09:17:14;;;;;;;19.50;3.03;;;;;;;-142.75;100.00;76885.25;5070731;28;20103;-67
2021/11/30 09:19:39;;;;;;;11.35;2.70;;;;;;;-142.75;100.00;76899.03;5052501;28;20028;-67
2021/11/30 09:22:05;;;;;;;12.32;3.47;;;;;;;-142.75;100.00;76889.19;5052693;28;20393;-68
2021/11/30 09:24:30;;;;;;;17.90;3.42;;;;;;;-142.75;100.00;76893.13;5070835;28;20059;-68
2021/11/30 09:26:56;;;;;;;12.18;2.95;;;;;;;-142.75;100.00;76893.13;5070600;28;20047;-68
2021/11/30 09:29:21;;;;;;;17.02;2.83;;;;;;;-142.75;100.00;76889.19;5070926;28;20036;-68
2021/11/30 09:31:47;;;;;;;13.13;2.58;;;;;;;-142.75;100.00;76883.28;5051410;28;20029;-68
2021/11/30 09:34:12;;;;;;;16.33;2.80;;;;;;;-142.75;100.00;76887.22;5069664;28;20108;-68
2021/11/30 09:36:40;;;;;;;20.70;3.10;;;;;;;-142.75;100.00;76879.34;5070251;28;20083;-68
2021/11/30 09:39:07;;;;;;;14.00;2.92;;;;;;;-142.75;100.00;76863.59;5070301;28;20016;-68
2021/11/30 09:41:34;;;;;;;12.85;3.33;;;;;;;-142.75;100.00;76869.50;5069568;28;20024;-67
2021/11/30 09:43:59;;;;;;;11.60;2.75;;;;;;;-142.75;100.00;76869.50;5070238;28;20031;-67
2021/11/30 09:46:25;;;;;;;12.10;4.03;;;;;;;-142.75;100.00;76859.66;5070228;28;20020;-67
2021/11/30 09:48:52;;;;;;;17.38;2.92;;;;;;;-142.75;100.00;76849.81;5070573;28;20027;-68
2021/11/30 09:51:17;;;;;;;;;;;;;;;-142.75;100.00;76851.78;5070083;28;20107;-68
2021/11/30 09:53:43;;;;;;;17.08;3.35;;;;;;;-142.75;100.00;76863.59;5070120;28;20393;-68
2021/11/30 09:56:09;;;;;;;;;;;;;;;-142.75;100.00;76861.63;5070463;28;20028;-68
2021/11/30 09:58:34;;;;;;;17.75;2.95;;;;;;;-142.75;100.00;76859.66;5070081;28;19919;-68
2021/11/30 10:01:02;;;;;;;15.45;3.40;;;;;;;-142.75;100.00;76863.59;5069169;28;20389;-68
2021/11/30 10:03:28;;;;;;;11.98;2.83;;;;;;;-142.75;100.00;76863.59;5052019;28;20051;-68
2021/11/30 10:05:55;;;;;;;14.40;3.03;;;;;;;-142.75;100.00;76857.69;5033247;28;1039828;-68
2021/11/30 10:08:32;;;;;;;14.23;3.10;;;;;;;-142.75;100.00;76857.69;5071250;28;20028;-69
2021/11/30 10:10:58;;;;;;;;;;;;;;;-142.75;100.00;76853.75;5069621;28;20405;-68
2021/11/30 10:13:23;;;;;;;16.20;2.90;;;;;;;-142.75;100.00;76845.88;5070931;28;19912;-68
2021/11/30 10:15:55;;;;;;;12.00;2.58;;;;;;;-142.75;100.00;76845.88;5052899;28;20021;-68
2021/11/30 10:18:20;;;;;;;14.63;2.58;;;;;;;-142.75;100.00;76851.78;5053153;28;20078;-68
2021/11/30 10:20:48;;;;;;;12.73;3.87;;;;;;;-142.75;100.00;76859.66;5070055;28;20024;-68
2021/11/30 10:23:16;;;;;;;13.15;2.63;;;;;;;-142.75;100.00;76853.75;5070721;28;20362;-68
2021/11/30 10:25:42;;;;;;;13.90;3.05;;;;;;;-142.75;100.00;76843.91;5052751;28;20051;-68
2021/11/30 10:28:12;;;;;;;13.68;3.20;;;;;;;-142.75;100.00;76849.81;5070923;28;20032;-68
2021/11/30 10:30:41;;;;;;;14.43;3.50;;;;;;;-142.75;100.00;76855.72;5069567;28;20025;-67
2021/11/30 10:33:27;;;;;;;15.02;2.85;;;;;;;-142.75;100.00;76855.72;5070514;28;20030;-67
2021/11/30 10:35:59;;;;;;;19.30;3.20;;;;;;;-142.75;100.00;76857.69;5051994;28;20060;-68
2021/11/30 10:38:39;;;;;;;13.20;2.75;;;;;;;-142.75;100.00;76861.63;5070465;28;20443;-68
2021/11/30 10:41:13;;;;;;;11.82;2.80;;;;;;;-142.75;100.00;76857.69;5069580;28;20025;-69
2021/11/30 10:43:41;;;;;;;10.27;2.38;;;;;;;-142.75;100.00;76857.69;5070573;28;20036;-68
2021/11/30 10:46:18;;;;;;;13.20;2.80;;;;;;;-142.75;100.00;76861.63;5070333;28;20016;-68
2021/11/30 10:48:43;;;;;;;17.75;3.03;;;;;;;-142.75;100.00;76867.53;5070428;28;20032;-69
2021/11/30 10:51:09;;;;;;;11.95;2.42;;;;;;;-142.75;100.00;76865.56;5049760;28;20028;-69
2021/11/30 10:53:34;;;;;;;8.98;2.38;;;;;;;-142.75;100.00;76869.50;5070749;28;20482;-68
2021/11/30 10:56:01;;;;;;;12.38;2.85;;;;;;;-142.75;100.00;76855.72;5068691;28;20394;-68
2021/11/30 10:58:29;;;;;;;9.75;2.30;;;;;;;-142.75;100.00;76861.63;5070443;28;20482;-68
2021/11/30 11:00:59;;;;;;;13.63;2.83;;;;;;;-142.75;100.00;76857.69;5051309;28;20394;-68
2021/11/30 11:03:26;;;;;;;10.05;2.75;;;;;;;-142.75;100.00;76849.81;5052453;28;20036;-67
2021/11/30 11:09:04;;;;;;;12.80;2.40;;;;;;;-142.75;100.00;76845.88;5046413;28;20047;-69
2021/11/30 11:11:35;;;;;;;10.70;2.50;;;;;;;-142.75;100.00;76853.75;5051261;28;20402;-68
2021/11/30 11:14:03;;;;;;;14.38;2.50;;;;;;;-142.75;100.00;76857.69;5069781;28;20035;-68
2021/11/30 11:16:32;;;;;;;11.18;3.40;;;;;;;-142.75;100.00;76853.75;5051690;28;20107;-67
2021/11/30 11:18:59;;;;;;;9.50;2.42;;;;;;;-142.75;100.00;76855.72;5069855;28;20032;-69
2021/11/30 11:21:31;;;;;;;13.43;2.55;;;;;;;-142.75;100.00;76851.78;5068423;28;20078;-68